createdAt,value
2024-01-24T00:02:03.197Z,79.34
2024-01-24T00:04:31.005Z,79.51
2024-01-24T00:06:58.297Z,79.72
2024-01-24T00:09:25.625Z,80.68
2024-01-24T00:11:52.892Z,79.77
2024-01-24T00:14:20.120Z,80.03
2024-01-24T00:16:47.320Z,79.69
2024-01-24T00:19:14.626Z,80.07
2024-01-24T00:21:42.164Z,81.97
2024-01-24T00:24:09.511Z,82.55
2024-01-24T00:26:39.586Z,82.64
2024-01-24T00:29:06.762Z,82.67
2024-01-24T00:31:34.191Z,83.06
2024-01-24T00:34:01.760Z,83.72
2024-01-24T00:36:28.985Z,83.92
2024-01-24T00:38:56.125Z,83.75
2024-01-24T00:41:23.469Z,83.14
2024-01-24T00:43:50.649Z,83.37
2024-01-24T00:46:17.777Z,82.73
2024-01-24T00:48:45.258Z,82.33
2024-01-24T00:51:13.198Z,82.19
2024-01-24T00:53:41.285Z,80.73
2024-01-24T00:56:08.596Z,82.30
2024-01-24T00:58:35.811Z,81.96
2024-01-24T01:01:03.141Z,81.53
2024-01-24T01:03:30.470Z,81.04
2024-01-24T01:05:57.709Z,80.30
2024-01-24T01:08:25.004Z,79.66
2024-01-24T01:10:52.158Z,79.88
2024-01-24T01:13:19.623Z,78.82
2024-01-24T01:15:46.986Z,77.76
2024-01-24T01:18:14.264Z,77.84
2024-01-24T01:20:41.689Z,77.26
2024-01-24T01:23:08.890Z,77.00
2024-01-24T01:25:36.151Z,77.53
2024-01-24T01:28:03.400Z,76.52
2024-01-24T01:30:30.600Z,75.62
2024-01-24T01:32:57.949Z,75.04
2024-01-24T01:35:25.316Z,74.91
2024-01-24T01:37:52.624Z,74.97
2024-01-24T01:40:19.895Z,75.05
2024-01-24T01:42:47.222Z,74.41
2024-01-24T01:45:14.492Z,74.32
2024-01-24T01:47:42.294Z,73.34
2024-01-24T01:50:17.948Z,72.99
2024-01-24T01:52:46.993Z,73.12
2024-01-24T01:55:15.262Z,73.18
2024-01-24T01:57:44.924Z,71.85
2024-01-24T02:00:20.506Z,72.02
2024-01-24T02:02:48.890Z,72.30
2024-01-24T02:05:16.375Z,72.09
2024-01-24T02:07:45.053Z,71.67
2024-01-24T02:10:13.242Z,71.43
2024-01-24T02:12:40.698Z,71.90
2024-01-24T02:15:11.428Z,72.48
2024-01-24T02:17:38.895Z,72.77
2024-01-24T02:20:10.945Z,72.23
2024-01-24T02:22:38.265Z,71.98
2024-01-24T02:25:06.380Z,71.41
2024-01-24T02:27:33.621Z,72.05
2024-01-24T02:30:00.794Z,71.99
2024-01-24T02:32:28.105Z,72.18
2024-01-24T02:34:55.334Z,71.71
2024-01-24T02:37:23.435Z,72.32
2024-01-24T02:39:50.752Z,72.01
2024-01-24T02:42:18.149Z,72.11
2024-01-24T02:44:45.337Z,72.43
2024-01-24T02:47:13.016Z,71.65
2024-01-24T02:49:40.921Z,71.42
2024-01-24T02:52:08.273Z,71.31
2024-01-24T02:54:37.584Z,71.19
2024-01-24T02:57:05.817Z,71.63
2024-01-24T02:59:33.198Z,71.32
2024-01-24T03:02:00.497Z,72.05
2024-01-24T03:04:28.071Z,72.08
2024-01-24T03:06:57.044Z,72.39
2024-01-24T03:09:24.373Z,72.68
2024-01-24T03:11:51.628Z,72.85
2024-01-24T03:14:18.982Z,72.75
2024-01-24T03:16:46.134Z,72.88
2024-01-24T03:19:14.918Z,72.42
2024-01-24T03:21:42.768Z,73.12
2024-01-24T03:24:09.998Z,72.81
2024-01-24T03:26:37.434Z,73.21
2024-01-24T03:29:04.759Z,72.39
2024-01-24T03:31:32.009Z,72.54
2024-01-24T03:33:59.327Z,72.93
2024-01-24T03:36:26.632Z,72.70
2024-01-24T03:38:54.657Z,72.18
2024-01-24T03:41:21.927Z,72.30
2024-01-24T03:43:49.505Z,71.63
2024-01-24T03:46:21.165Z,72.54
2024-01-24T03:48:48.686Z,71.98
2024-01-24T03:51:15.999Z,72.30
2024-01-24T03:53:43.170Z,72.53
2024-01-24T03:56:10.329Z,72.25
2024-01-24T03:58:38.233Z,72.11
2024-01-24T04:01:06.489Z,72.74
2024-01-24T04:03:33.952Z,72.15
2024-01-24T04:06:01.439Z,72.05
2024-01-24T04:08:28.732Z,72.30
2024-01-24T04:10:56.044Z,72.18
2024-01-24T04:13:23.207Z,71.42
2024-01-24T04:15:50.462Z,71.67
2024-01-24T04:18:17.997Z,71.50
2024-01-24T04:20:45.452Z,71.52
2024-01-24T04:23:12.709Z,70.94
2024-01-24T04:25:39.852Z,70.96
2024-01-24T04:28:07.124Z,70.71
2024-01-24T04:30:34.440Z,71.04
2024-01-24T04:33:01.744Z,71.42
2024-01-24T04:35:28.931Z,70.48
2024-01-24T04:37:56.076Z,70.11
2024-01-24T04:40:23.258Z,69.97
2024-01-24T04:42:50.436Z,70.60
2024-01-24T04:45:18.004Z,70.56
2024-01-24T04:47:46.967Z,70.48
2024-01-24T04:50:14.454Z,69.21
2024-01-24T04:52:41.690Z,68.82
2024-01-24T04:55:15.018Z,68.66
2024-01-24T04:57:42.772Z,69.15
2024-01-24T05:00:13.052Z,68.89
2024-01-24T05:02:40.611Z,69.18
2024-01-24T05:05:08.678Z,69.10
2024-01-24T05:07:36.295Z,69.73
2024-01-24T05:10:04.816Z,69.01
2024-01-24T05:12:32.857Z,69.26
2024-01-24T05:15:00.332Z,68.11
2024-01-24T05:17:27.544Z,68.81
2024-01-24T05:19:55.344Z,68.70
2024-01-24T05:22:22.833Z,68.54
2024-01-24T05:24:50.149Z,68.82
2024-01-24T05:27:17.585Z,68.57
2024-01-24T05:29:46.745Z,68.55
2024-01-24T05:32:14.837Z,68.67
2024-01-24T05:34:42.344Z,68.58
2024-01-24T05:37:09.825Z,68.57
2024-01-24T05:39:37.031Z,69.25
2024-01-24T05:42:04.646Z,69.20
2024-01-24T05:44:31.803Z,69.04
2024-01-24T05:46:58.924Z,68.74
2024-01-24T05:49:26.320Z,69.06
2024-01-24T05:51:53.624Z,68.33
2024-01-24T05:54:22.437Z,68.99
2024-01-24T05:56:49.604Z,68.87
2024-01-24T05:59:16.846Z,68.34
2024-01-24T06:01:44.673Z,69.17
2024-01-24T06:04:12.245Z,69.00
2024-01-24T06:06:39.810Z,68.99
2024-01-24T06:09:07.328Z,68.66
2024-01-24T06:11:34.653Z,69.87
2024-01-24T06:14:01.989Z,69.70
2024-01-24T06:16:29.172Z,69.21
2024-01-24T06:18:56.423Z,69.42
2024-01-24T06:21:23.693Z,69.53
2024-01-24T06:23:50.863Z,69.24
2024-01-24T06:26:18.134Z,69.28
2024-01-24T06:28:45.327Z,69.11
2024-01-24T06:31:13.166Z,68.82
2024-01-24T06:33:40.390Z,69.24
2024-01-24T06:36:07.767Z,69.17
2024-01-24T06:38:34.932Z,68.46
2024-01-24T06:41:02.153Z,68.28
2024-01-24T06:43:30.053Z,67.85
2024-01-24T06:45:57.340Z,67.95
2024-01-24T06:48:24.721Z,68.58
2024-01-24T06:50:51.968Z,68.69
2024-01-24T06:53:19.116Z,68.48
2024-01-24T06:55:46.357Z,68.06
2024-01-24T06:58:13.775Z,68.34
2024-01-24T07:00:41.047Z,68.29
2024-01-24T07:03:08.368Z,67.88
2024-01-24T07:05:35.594Z,67.77
2024-01-24T07:08:02.827Z,67.68
2024-01-24T07:10:30.023Z,68.01
2024-01-24T07:12:58.242Z,67.60
2024-01-24T07:15:26.124Z,67.66
2024-01-24T07:17:53.395Z,68.30
2024-01-24T07:20:20.749Z,67.87
2024-01-24T07:22:48.003Z,67.57
2024-01-24T07:25:15.235Z,68.04
2024-01-24T07:27:42.824Z,68.24
2024-01-24T07:30:10.554Z,68.33
2024-01-24T07:32:41.041Z,68.37
2024-01-24T07:35:10.363Z,68.32
2024-01-24T07:37:37.878Z,67.18
2024-01-24T07:40:05.996Z,67.89
2024-01-24T07:42:33.370Z,67.62
2024-01-24T07:45:01.171Z,67.15
2024-01-24T07:47:28.440Z,67.44
2024-01-24T07:49:57.110Z,67.92
2024-01-24T07:52:32.380Z,67.44
2024-01-24T07:55:08.039Z,67.62
2024-01-24T07:57:36.339Z,67.56
2024-01-24T08:00:07.364Z,67.38
2024-01-24T08:02:35.423Z,67.44
2024-01-24T08:05:03.127Z,66.87
2024-01-24T08:07:32.412Z,67.08
2024-01-24T08:09:59.870Z,66.34
2024-01-24T08:12:27.154Z,66.91
2024-01-24T08:14:54.715Z,67.18
2024-01-24T08:17:21.999Z,66.78
2024-01-24T08:19:52.674Z,66.41
2024-01-24T08:22:19.883Z,66.43
2024-01-24T08:24:47.157Z,66.39
2024-01-24T08:27:14.658Z,66.44
2024-01-24T08:29:41.984Z,66.41
2024-01-24T08:32:09.211Z,66.28
2024-01-24T08:34:37.742Z,66.75
2024-01-24T08:37:06.415Z,66.49
2024-01-24T08:39:34.435Z,66.23
2024-01-24T08:42:04.702Z,67.28
2024-01-24T08:44:31.969Z,67.44
2024-01-24T08:46:59.464Z,67.69
2024-01-24T08:49:26.881Z,67.74
2024-01-24T08:51:54.461Z,67.45
2024-01-24T08:54:22.316Z,67.91
2024-01-24T08:56:50.412Z,68.98
2024-01-24T08:59:18.289Z,69.46
2024-01-24T09:01:47.205Z,70.19
2024-01-24T09:04:15.452Z,69.84
2024-01-24T09:06:44.291Z,69.33
2024-01-24T09:09:15.033Z,70.19
2024-01-24T09:11:49.429Z,70.41
2024-01-24T09:14:25.408Z,70.60
2024-01-24T09:16:53.316Z,71.73
2024-01-24T09:19:21.475Z,72.84
2024-01-24T09:21:49.176Z,69.84
2024-01-24T09:24:17.550Z,69.12
2024-01-24T09:26:44.853Z,69.40
2024-01-24T09:29:14.594Z,68.73
2024-01-24T09:31:46.740Z,67.93
2024-01-24T09:34:14.311Z,66.67
2024-01-24T09:36:42.170Z,66.44
2024-01-24T09:39:13.213Z,67.03
2024-01-24T09:41:42.853Z,67.74
2024-01-24T09:44:13.093Z,67.23
2024-01-24T09:46:43.336Z,67.57
2024-01-24T09:49:11.671Z,66.68
2024-01-24T09:51:42.451Z,66.90
2024-01-24T09:54:13.810Z,67.26
2024-01-24T09:56:43.985Z,67.16
2024-01-24T09:59:12.817Z,66.19
2024-01-24T10:01:40.982Z,65.77
2024-01-24T10:04:10.502Z,65.28
2024-01-24T10:06:40.754Z,65.36
2024-01-24T10:09:10.789Z,63.32
2024-01-24T10:11:37.923Z,62.35
2024-01-24T10:14:05.114Z,62.02
2024-01-24T10:16:32.851Z,61.01
2024-01-24T10:19:00.239Z,61.18
2024-01-24T10:21:27.893Z,61.63
2024-01-24T10:24:00.290Z,61.88
2024-01-24T10:26:28.124Z,62.32
2024-01-24T10:28:56.152Z,62.47
2024-01-24T10:31:25.010Z,62.02
2024-01-24T10:33:57.080Z,62.14
2024-01-24T10:36:28.157Z,60.93
2024-01-24T10:39:01.686Z,59.69
2024-01-24T10:41:33.540Z,59.07
2024-01-24T10:44:11.778Z,58.75
2024-01-24T10:46:40.229Z,58.21
2024-01-24T10:49:11.051Z,58.93
2024-01-24T10:51:39.862Z,58.69
2024-01-24T10:54:08.190Z,60.01
2024-01-24T10:56:39.348Z,61.14
2024-01-24T10:59:08.490Z,61.28
2024-01-24T11:01:36.125Z,61.56
2024-01-24T11:04:08.655Z,61.88
2024-01-24T11:06:48.147Z,61.56
2024-01-24T11:09:25.170Z,61.88
2024-01-24T11:11:58.444Z,61.45
2024-01-24T11:14:34.370Z,61.30
2024-01-24T11:17:07.022Z,61.40
2024-01-24T11:19:34.643Z,61.11
2024-01-24T11:22:16.420Z,60.62
2024-01-24T11:24:53.973Z,60.92
2024-01-24T11:27:36.593Z,60.76
2024-01-24T11:30:19.838Z,60.79
2024-01-24T11:32:47.834Z,60.46
2024-01-24T11:35:33.608Z,60.53
2024-01-24T11:38:16.942Z,60.70
2024-01-24T11:40:54.036Z,60.67
2024-01-24T11:43:31.719Z,60.57
2024-01-24T11:46:06.929Z,60.14
2024-01-24T11:48:40.559Z,60.63
2024-01-24T11:51:10.200Z,58.77
2024-01-24T11:53:37.563Z,59.01
2024-01-24T11:56:06.671Z,59.19
2024-01-24T11:58:34.625Z,59.08
2024-01-24T12:01:12.266Z,59.01
2024-01-24T12:03:50.618Z,59.53
2024-01-24T12:06:19.157Z,59.62
2024-01-24T12:08:49.864Z,59.76
2024-01-24T12:11:18.885Z,59.91
2024-01-24T12:13:46.590Z,59.50
2024-01-24T12:16:14.086Z,59.80
2024-01-24T12:18:42.362Z,59.39
2024-01-24T12:21:10.528Z,59.33
2024-01-24T12:23:38.117Z,60.29
2024-01-24T12:26:05.821Z,60.36
2024-01-24T12:28:33.882Z,60.86
2024-01-24T12:31:04.704Z,60.61
2024-01-24T12:33:34.514Z,60.99
2024-01-24T12:36:07.568Z,61.30
2024-01-24T12:38:36.996Z,60.94
2024-01-24T12:41:05.201Z,61.09
2024-01-24T12:43:32.905Z,60.73
2024-01-24T12:46:08.229Z,61.03
2024-01-24T12:48:36.379Z,61.23
2024-01-24T12:51:04.194Z,61.48
2024-01-24T12:53:33.686Z,62.05
2024-01-24T12:56:01.904Z,62.07
2024-01-24T12:58:30.358Z,62.52
2024-01-24T13:00:57.847Z,62.34
2024-01-24T13:03:27.603Z,61.96
2024-01-24T13:05:57.471Z,62.07
2024-01-24T13:08:25.104Z,61.95
2024-01-24T13:10:53.574Z,62.61
2024-01-24T13:13:21.241Z,62.61
2024-01-24T13:15:49.743Z,63.05
2024-01-24T13:18:16.997Z,62.69
2024-01-24T13:20:44.348Z,62.66
2024-01-24T13:23:11.736Z,62.49
2024-01-24T13:25:39.099Z,62.84
2024-01-24T13:28:06.849Z,63.03
2024-01-24T13:30:35.507Z,62.52
2024-01-24T13:33:02.822Z,60.99
2024-01-24T13:35:31.507Z,61.40
2024-01-24T13:37:59.316Z,62.41
2024-01-24T13:40:26.557Z,62.63
2024-01-24T13:42:54.043Z,62.87
2024-01-24T13:45:21.380Z,63.08
2024-01-24T13:47:48.661Z,63.07
2024-01-24T13:50:16.312Z,63.50
2024-01-24T13:52:43.777Z,62.98
2024-01-24T13:55:12.856Z,62.86
2024-01-24T13:57:43.550Z,62.18
2024-01-24T14:00:14.781Z,62.03
2024-01-24T14:02:42.879Z,62.25
2024-01-24T14:05:11.950Z,61.15
2024-01-24T14:07:43.513Z,60.89
2024-01-24T14:10:12.026Z,60.52
2024-01-24T14:12:39.506Z,59.37
2024-01-24T14:15:15.353Z,59.13
2024-01-24T14:17:51.053Z,58.89
2024-01-24T14:20:18.992Z,60.52
2024-01-24T14:22:46.271Z,61.25
2024-01-24T14:25:13.589Z,61.19
2024-01-24T14:27:41.715Z,60.81
2024-01-24T14:30:09.177Z,59.94
2024-01-24T14:32:39.463Z,60.88
2024-01-24T14:35:07.993Z,60.51
2024-01-24T14:37:36.062Z,60.57
2024-01-24T14:40:04.129Z,60.73
2024-01-24T14:42:32.067Z,60.37
2024-01-24T14:44:59.912Z,60.72
2024-01-24T14:47:27.099Z,61.07
2024-01-24T14:49:54.495Z,60.82
2024-01-24T14:52:21.705Z,60.61
2024-01-24T14:54:48.859Z,61.42
2024-01-24T14:57:16.158Z,63.79
2024-01-24T14:59:43.348Z,64.11
2024-01-24T15:02:10.502Z,64.67
2024-01-24T15:04:40.337Z,65.04
2024-01-24T15:07:07.575Z,65.45
2024-01-24T15:09:35.278Z,65.98
2024-01-24T15:12:03.367Z,66.13
2024-01-24T15:14:30.760Z,65.56
2024-01-24T15:16:58.648Z,65.46
2024-01-24T15:19:26.329Z,65.64
2024-01-24T15:21:54.153Z,64.66
2024-01-24T15:24:22.851Z,64.83
2024-01-24T15:26:50.194Z,66.66
2024-01-24T15:29:17.902Z,68.02
2024-01-24T15:31:45.209Z,68.59
2024-01-24T15:34:15.547Z,67.75
2024-01-24T15:36:43.931Z,67.74
2024-01-24T15:39:13.504Z,67.68
2024-01-24T15:41:42.152Z,69.11
2024-01-24T15:44:09.615Z,74.32
2024-01-24T15:46:36.876Z,78.63
2024-01-24T15:49:04.479Z,81.17
2024-01-24T15:51:32.457Z,82.04
2024-01-24T15:53:59.686Z,82.83
2024-01-24T15:56:27.052Z,85.63
2024-01-24T15:58:57.517Z,87.56
2024-01-24T16:01:25.601Z,86.71
2024-01-24T16:03:54.779Z,86.07
2024-01-24T16:09:20.794Z,89.20
2024-01-24T16:11:48.338Z,89.85
2024-01-24T16:14:16.693Z,91.00
2024-01-24T16:16:47.063Z,90.93
2024-01-24T16:19:14.320Z,90.73
2024-01-24T16:21:44.848Z,89.06
2024-01-24T16:24:12.044Z,89.39
2024-01-24T16:26:39.401Z,89.28
2024-01-24T16:34:48.334Z,81.83
2024-01-24T16:37:15.351Z,85.38
2024-01-24T16:39:41.985Z,84.42
2024-01-24T16:42:09.400Z,83.95
2024-01-24T16:44:36.983Z,84.80
2024-01-24T16:47:04.488Z,83.83
2024-01-24T16:49:32.124Z,83.65
2024-01-24T16:52:00.136Z,83.22
2024-01-24T16:54:27.390Z,82.80
2024-01-24T16:56:54.559Z,82.44
2024-01-24T16:59:21.767Z,81.08
2024-01-24T17:01:49.128Z,81.60
2024-01-24T17:04:16.906Z,81.02
2024-01-24T17:06:46.037Z,80.62
2024-01-24T17:09:13.415Z,80.23
2024-01-24T17:11:40.556Z,80.02
2024-01-24T17:14:07.710Z,79.90
2024-01-24T17:16:36.772Z,79.80
2024-01-24T17:19:04.050Z,79.33
2024-01-24T17:21:31.275Z,79.55
2024-01-24T17:23:58.497Z,79.53
2024-01-24T17:26:25.764Z,78.23
2024-01-24T17:28:55.197Z,78.48
2024-01-24T17:31:23.801Z,77.58
2024-01-24T17:33:51.091Z,76.24
2024-01-24T17:36:18.754Z,75.46
2024-01-24T17:38:46.325Z,74.68
2024-01-24T17:41:16.602Z,73.53
2024-01-24T17:43:44.079Z,73.02
2024-01-24T17:46:12.252Z,71.43
2024-01-24T17:48:40.391Z,70.73
2024-01-24T17:51:08.053Z,69.41
2024-01-24T17:53:35.327Z,67.53
2024-01-24T17:56:02.486Z,67.77
2024-01-24T17:58:32.044Z,68.11
2024-01-24T18:01:00.417Z,67.55
2024-01-24T18:03:27.857Z,67.34
2024-01-24T18:05:55.082Z,67.16
2024-01-24T18:08:23.292Z,67.83
2024-01-24T18:10:51.068Z,67.80
2024-01-24T18:13:18.246Z,67.29
2024-01-24T18:15:45.395Z,67.27
2024-01-24T18:18:12.800Z,67.15
2024-01-24T18:20:40.428Z,67.14
2024-01-24T18:23:07.571Z,66.14
2024-01-24T18:25:35.893Z,67.23
2024-01-24T18:28:05.564Z,67.42
2024-01-24T18:30:32.773Z,67.39
2024-01-24T18:32:59.986Z,67.75
2024-01-24T18:35:27.647Z,68.26
2024-01-24T18:37:54.760Z,68.72
2024-01-24T18:40:22.033Z,68.22
2024-01-24T18:42:49.339Z,68.81
2024-01-24T18:45:17.402Z,68.80
2024-01-24T18:47:44.658Z,68.63
2024-01-24T18:50:12.178Z,68.76
2024-01-24T18:52:39.396Z,68.71
2024-01-24T18:55:07.054Z,69.02
2024-01-24T18:57:34.554Z,68.97
2024-01-24T19:00:01.758Z,68.66
2024-01-24T19:02:29.112Z,69.04
2024-01-24T19:04:58.299Z,69.05
2024-01-24T19:07:25.712Z,68.75
2024-01-24T19:09:53.245Z,68.15
2024-01-24T19:12:20.649Z,68.86
2024-01-24T19:14:48.069Z,68.91
2024-01-24T19:17:15.457Z,68.66
2024-01-24T19:19:42.735Z,67.86
2024-01-24T19:22:10.109Z,67.78
2024-01-24T19:24:37.356Z,67.76
2024-01-24T19:27:05.233Z,68.28
2024-01-24T19:29:32.536Z,68.79
2024-01-24T19:31:59.854Z,68.70
2024-01-24T19:34:27.025Z,68.40
2024-01-24T19:36:54.201Z,68.67
2024-01-24T19:39:21.426Z,68.26
2024-01-24T19:41:48.607Z,67.51
2024-01-24T19:44:18.160Z,67.27
2024-01-24T19:46:45.803Z,66.96
2024-01-24T19:49:13.727Z,66.95
2024-01-24T19:51:40.980Z,67.64
2024-01-24T19:54:08.127Z,67.80
2024-01-24T19:56:35.499Z,68.01
2024-01-24T19:59:04.825Z,68.31
2024-01-24T20:01:32.199Z,68.79
2024-01-24T20:03:59.382Z,68.84
2024-01-24T20:06:26.795Z,69.37
2024-01-24T20:08:54.051Z,69.51
2024-01-24T20:11:21.408Z,69.44
2024-01-24T20:13:49.238Z,69.49
2024-01-24T20:16:16.538Z,69.50
2024-01-24T20:18:43.723Z,69.52
2024-01-24T20:21:10.942Z,68.92
2024-01-24T20:23:38.121Z,69.49
2024-01-24T20:26:06.581Z,69.02
2024-01-24T20:28:33.765Z,69.32
2024-01-24T20:31:00.938Z,69.31
2024-01-24T20:33:28.209Z,69.17
2024-01-24T20:35:55.575Z,69.27
2024-01-24T20:38:22.694Z,69.34
2024-01-24T20:40:50.115Z,69.48
2024-01-24T20:43:17.951Z,69.32
2024-01-24T20:45:45.139Z,68.86
2024-01-24T20:48:16.078Z,68.46
2024-01-24T20:50:43.968Z,68.47
2024-01-24T20:53:13.885Z,68.76
2024-01-24T20:55:41.131Z,68.50
2024-01-24T20:58:09.380Z,68.37
2024-01-24T21:00:37.523Z,68.06
2024-01-24T21:03:05.215Z,68.26
2024-01-24T21:05:32.519Z,68.49
2024-01-24T21:08:00.023Z,67.96
2024-01-24T21:10:27.453Z,68.23
2024-01-24T21:12:54.736Z,68.53
2024-01-24T21:15:22.307Z,68.22
2024-01-24T21:17:51.383Z,68.54
2024-01-24T21:20:19.059Z,68.69
2024-01-24T21:22:48.572Z,68.66
2024-01-24T21:25:19.207Z,68.95
2024-01-24T21:27:46.448Z,69.03
2024-01-24T21:30:14.009Z,68.96
2024-01-24T21:32:41.219Z,69.49
2024-01-24T21:35:10.355Z,69.94
2024-01-24T21:37:37.668Z,70.29
2024-01-24T21:40:05.358Z,69.97
2024-01-24T21:42:32.609Z,70.12
2024-01-24T21:44:59.754Z,69.93
2024-01-24T21:47:27.119Z,70.22
2024-01-24T21:49:54.694Z,70.40
2024-01-24T21:52:22.263Z,70.04
2024-01-24T21:54:52.581Z,70.05
2024-01-24T21:57:19.943Z,69.95
2024-01-24T21:59:51.035Z,69.83
2024-01-24T22:02:18.414Z,70.27
2024-01-24T22:07:27.700Z,69.42
2024-01-24T22:09:55.612Z,69.15
2024-01-24T22:12:22.860Z,69.51
2024-01-24T22:14:51.303Z,68.45
2024-01-24T22:17:19.085Z,68.54
2024-01-24T22:19:46.341Z,68.17
2024-01-24T22:22:14.794Z,67.52
2024-01-24T22:24:42.025Z,67.21
2024-01-24T22:27:09.178Z,66.89
2024-01-24T22:29:36.281Z,66.79
2024-01-24T22:32:04.094Z,66.29
2024-01-24T22:34:31.391Z,66.18
2024-01-24T22:36:59.679Z,66.58
2024-01-24T22:39:26.908Z,66.82
2024-01-24T22:41:54.075Z,66.49
2024-01-24T22:44:21.210Z,66.92
2024-01-24T22:46:48.435Z,66.58
2024-01-24T22:49:15.761Z,66.03
2024-01-24T22:51:42.960Z,65.88
2024-01-24T22:54:10.184Z,65.66
2024-01-24T22:56:37.356Z,65.30
2024-01-24T22:59:04.680Z,65.08
2024-01-24T23:01:32.040Z,65.48
2024-01-24T23:03:59.408Z,66.15
2024-01-24T23:06:26.640Z,65.64
2024-01-24T23:08:53.797Z,65.65
2024-01-24T23:11:21.079Z,66.32
2024-01-24T23:13:48.186Z,65.97
2024-01-24T23:16:15.771Z,65.57
2024-01-24T23:18:43.037Z,66.36
2024-01-24T23:21:10.210Z,66.03
2024-01-24T23:23:37.474Z,66.16
2024-01-24T23:26:04.781Z,66.48
2024-01-24T23:28:32.153Z,67.09
2024-01-24T23:30:59.378Z,67.09
2024-01-24T23:33:29.205Z,67.30
2024-01-24T23:35:56.617Z,67.79
2024-01-24T23:38:23.782Z,68.12
2024-01-24T23:40:50.947Z,68.39
2024-01-24T23:43:18.145Z,68.41
2024-01-24T23:45:45.475Z,67.65
2024-01-24T23:48:12.899Z,67.14
2024-01-24T23:50:40.291Z,68.33
2024-01-24T23:53:08.115Z,68.96
2024-01-24T23:55:37.108Z,69.14
2024-01-24T23:58:04.501Z,68.93
